sensor_id;sensor_type;location;lat;lon;timestamp;temperature;humidity
22674;DHT22;11504;43.334;21.918;2023-09-08T00:00:27;21.7;100.0
22674;DHT22;11504;43.334;21.918;2023-09-08T00:05:04;21.7;100.0
22674;DHT22;11504;43.334;21.918;2023-09-08T00:09:41;21.7;100.0
22674;DHT22;11504;43.334;21.918;2023-09-08T00:14:18;21.7;100.0
22674;DHT22;11504;43.334;21.918;2023-09-08T00:18:54;21.7;100.0
22674;DHT22;11504;43.334;21.918;2023-09-08T00:23:31;21.7;100.0
22674;DHT22;11504;43.334;21.918;2023-09-08T00:28:07;21.5;100.0
22674;DHT22;11504;43.334;21.918;2023-09-08T00:32:44;21.5;100.0
22674;DHT22;11504;43.334;21.918;2023-09-08T00:37:20;21.4;100.0
22674;DHT22;11504;43.334;21.918;2023-09-08T00:41:57;21.4;100.0
22674;DHT22;11504;43.334;21.918;2023-09-08T00:46:33;21.3;100.0
22674;DHT22;11504;43.334;21.918;2023-09-08T00:51:10;21.3;100.0
22674;DHT22;11504;43.334;21.918;2023-09-08T00:55:48;21.2;100.0
22674;DHT22;11504;43.334;21.918;2023-09-08T01:00:30;21.2;100.0
22674;DHT22;11504;43.334;21.918;2023-09-08T01:05:07;21.0;100.0
22674;DHT22;11504;43.334;21.918;2023-09-08T01:09:47;21.0;100.0
22674;DHT22;11504;43.334;21.918;2023-09-08T01:14:27;20.8;100.0
22674;DHT22;11504;43.334;21.918;2023-09-08T01:19:12;20.8;100.0
22674;DHT22;11504;43.334;21.918;2023-09-08T01:24:27;20.8;100.0
22674;DHT22;11504;43.334;21.918;2023-09-08T01:29:57;20.8;100.0
22674;DHT22;11504;43.334;21.918;2023-09-08T01:34:43;20.8;100.0
22674;DHT22;11504;43.334;21.918;2023-09-08T01:39:20;20.8;100.0
22674;DHT22;11504;43.334;21.918;2023-09-08T01:43:56;20.8;100.0
22674;DHT22;11504;43.334;21.918;2023-09-08T01:48:33;20.7;100.0
22674;DHT22;11504;43.334;21.918;2023-09-08T01:53:09;20.7;100.0
22674;DHT22;11504;43.334;21.918;2023-09-08T01:57:45;20.6;100.0
22674;DHT22;11504;43.334;21.918;2023-09-08T02:02:21;20.6;100.0
22674;DHT22;11504;43.334;21.918;2023-09-08T02:06:58;20.5;100.0
22674;DHT22;11504;43.334;21.918;2023-09-08T02:11:35;20.5;100.0
22674;DHT22;11504;43.334;21.918;2023-09-08T02:16:13;20.3;100.0
22674;DHT22;11504;43.334;21.918;2023-09-08T02:20:51;20.3;100.0
22674;DHT22;11504;43.334;21.918;2023-09-08T02:25:27;20.0;100.0
22674;DHT22;11504;43.334;21.918;2023-09-08T02:30:06;20.0;100.0
22674;DHT22;11504;43.334;21.918;2023-09-08T02:34:45;19.8;100.0
22674;DHT22;11504;43.334;21.918;2023-09-08T02:39:21;19.8;100.0
22674;DHT22;11504;43.334;21.918;2023-09-08T02:43:58;19.8;100.0
22674;DHT22;11504;43.334;21.918;2023-09-08T02:48:34;19.6;100.0
22674;DHT22;11504;43.334;21.918;2023-09-08T02:53:12;19.6;100.0
22674;DHT22;11504;43.334;21.918;2023-09-08T02:57:48;19.5;100.0
22674;DHT22;11504;43.334;21.918;2023-09-08T03:02:25;19.5;100.0
22674;DHT22;11504;43.334;21.918;2023-09-08T03:07:03;19.5;100.0
22674;DHT22;11504;43.334;21.918;2023-09-08T03:11:39;19.5;100.0
22674;DHT22;11504;43.334;21.918;2023-09-08T03:16:15;19.5;100.0
22674;DHT22;11504;43.334;21.918;2023-09-08T03:20:51;19.5;100.0
22674;DHT22;11504;43.334;21.918;2023-09-08T03:25:27;19.4;100.0
22674;DHT22;11504;43.334;21.918;2023-09-08T03:30:06;19.4;100.0
22674;DHT22;11504;43.334;21.918;2023-09-08T03:34:45;19.4;100.0
22674;DHT22;11504;43.334;21.918;2023-09-08T03:39:21;19.4;100.0
22674;DHT22;11504;43.334;21.918;2023-09-08T03:43:58;19.4;100.0
22674;DHT22;11504;43.334;21.918;2023-09-08T03:48:34;19.4;100.0
22674;DHT22;11504;43.334;21.918;2023-09-08T03:53:11;19.4;100.0
22674;DHT22;11504;43.334;21.918;2023-09-08T03:57:49;19.3;100.0
22674;DHT22;11504;43.334;21.918;2023-09-08T04:02:25;19.3;100.0
22674;DHT22;11504;43.334;21.918;2023-09-08T04:07:03;19.2;100.0
22674;DHT22;11504;43.334;21.918;2023-09-08T04:11:40;19.2;100.0
22674;DHT22;11504;43.334;21.918;2023-09-08T04:16:17;19.1;100.0
22674;DHT22;11504;43.334;21.918;2023-09-08T04:20:54;19.1;100.0
22674;DHT22;11504;43.334;21.918;2023-09-08T04:25:31;19.1;100.0
22674;DHT22;11504;43.334;21.918;2023-09-08T04:30:09;19.1;100.0
22674;DHT22;11504;43.334;21.918;2023-09-08T04:34:48;19.1;100.0
22674;DHT22;11504;43.334;21.918;2023-09-08T04:39:25;19.1;100.0
22674;DHT22;11504;43.334;21.918;2023-09-08T04:44:01;19.1;100.0
22674;DHT22;11504;43.334;21.918;2023-09-08T04:48:39;21.1;100.0
22674;DHT22;11504;43.334;21.918;2023-09-08T04:53:15;21.1;100.0
22674;DHT22;11504;43.334;21.918;2023-09-08T04:57:52;23.1;100.0
22674;DHT22;11504;43.334;21.918;2023-09-08T05:02:28;23.1;100.0
22674;DHT22;11504;43.334;21.918;2023-09-08T05:07:05;26.0;100.0
22674;DHT22;11504;43.334;21.918;2023-09-08T05:11:42;26.0;100.0
22674;DHT22;11504;43.334;21.918;2023-09-08T05:16:18;28.8;100.0
22674;DHT22;11504;43.334;21.918;2023-09-08T05:20:55;28.8;100.0
22674;DHT22;11504;43.334;21.918;2023-09-08T05:25:31;30.6;100.0
22674;DHT22;11504;43.334;21.918;2023-09-08T05:30:09;30.6;100.0
22674;DHT22;11504;43.334;21.918;2023-09-08T05:34:48;32.3;100.0
22674;DHT22;11504;43.334;21.918;2023-09-08T05:39:24;32.3;100.0
22674;DHT22;11504;43.334;21.918;2023-09-08T05:44:01;32.3;100.0
22674;DHT22;11504;43.334;21.918;2023-09-08T05:48:38;33.6;100.0
22674;DHT22;11504;43.334;21.918;2023-09-08T05:53:15;33.6;100.0
22674;DHT22;11504;43.334;21.918;2023-09-08T05:57:51;34.9;100.0
22674;DHT22;11504;43.334;21.918;2023-09-08T06:02:27;34.9;100.0
22674;DHT22;11504;43.334;21.918;2023-09-08T06:07:03;35.3;100.0
22674;DHT22;11504;43.334;21.918;2023-09-08T06:11:40;35.3;100.0
22674;DHT22;11504;43.334;21.918;2023-09-08T06:16:16;35.8;100.0
22674;DHT22;11504;43.334;21.918;2023-09-08T06:20:53;35.8;100.0
22674;DHT22;11504;43.334;21.918;2023-09-08T06:25:30;36.2;100.0
22674;DHT22;11504;43.334;21.918;2023-09-08T06:30:08;36.2;100.0
22674;DHT22;11504;43.334;21.918;2023-09-08T06:34:48;36.5;100.0
22674;DHT22;11504;43.334;21.918;2023-09-08T06:39:25;36.5;100.0
22674;DHT22;11504;43.334;21.918;2023-09-08T06:44:03;36.5;100.0
22674;DHT22;11504;43.334;21.918;2023-09-08T06:48:41;36.2;100.0
22674;DHT22;11504;43.334;21.918;2023-09-08T06:53:18;36.2;100.0
22674;DHT22;11504;43.334;21.918;2023-09-08T06:57:57;35.8;100.0
22674;DHT22;11504;43.334;21.918;2023-09-08T07:02:33;35.8;100.0
22674;DHT22;11504;43.334;21.918;2023-09-08T07:07:10;34.8;100.0
22674;DHT22;11504;43.334;21.918;2023-09-08T07:11:46;34.8;100.0
22674;DHT22;11504;43.334;21.918;2023-09-08T07:16:23;33.9;100.0
22674;DHT22;11504;43.334;21.918;2023-09-08T07:20:59;33.9;100.0
22674;DHT22;11504;43.334;21.918;2023-09-08T07:25:35;33.1;100.0
22674;DHT22;11504;43.334;21.918;2023-09-08T07:30:13;33.1;100.0
22674;DHT22;11504;43.334;21.918;2023-09-08T07:34:49;32.3;100.0
22674;DHT22;11504;43.334;21.918;2023-09-08T07:39:26;32.3;100.0
22674;DHT22;11504;43.334;21.918;2023-09-08T07:44:03;32.3;100.0
22674;DHT22;11504;43.334;21.918;2023-09-08T07:48:42;32.5;100.0
22674;DHT22;11504;43.334;21.918;2023-09-08T07:53:18;32.5;100.0
22674;DHT22;11504;43.334;21.918;2023-09-08T07:57:57;32.7;100.0
22674;DHT22;11504;43.334;21.918;2023-09-08T08:02:34;32.7;100.0
22674;DHT22;11504;43.334;21.918;2023-09-08T08:07:10;32.8;100.0
22674;DHT22;11504;43.334;21.918;2023-09-08T08:11:47;32.8;100.0
22674;DHT22;11504;43.334;21.918;2023-09-08T08:16:23;32.8;100.0
22674;DHT22;11504;43.334;21.918;2023-09-08T08:21:00;32.8;100.0
22674;DHT22;11504;43.334;21.918;2023-09-08T08:25:37;32.7;100.0
22674;DHT22;11504;43.334;21.918;2023-09-08T08:30:13;32.7;100.0
22674;DHT22;11504;43.334;21.918;2023-09-08T08:34:49;32.6;100.0
22674;DHT22;11504;43.334;21.918;2023-09-08T08:39:25;32.6;100.0
22674;DHT22;11504;43.334;21.918;2023-09-08T08:44:02;32.6;100.0
22674;DHT22;11504;43.334;21.918;2023-09-08T08:48:41;32.7;100.0
22674;DHT22;11504;43.334;21.918;2023-09-08T08:53:22;32.7;100.0
22674;DHT22;11504;43.334;21.918;2023-09-08T08:58:05;32.7;100.0
22674;DHT22;11504;43.334;21.918;2023-09-08T09:02:43;32.7;100.0
22674;DHT22;11504;43.334;21.918;2023-09-08T09:07:27;32.7;100.0
22674;DHT22;11504;43.334;21.918;2023-09-08T09:12:06;32.7;100.0
22674;DHT22;11504;43.334;21.918;2023-09-08T09:16:44;32.7;100.0
22674;DHT22;11504;43.334;21.918;2023-09-08T09:21:23;32.7;100.0
22674;DHT22;11504;43.334;21.918;2023-09-08T09:26:25;32.4;100.0
22674;DHT22;11504;43.334;21.918;2023-09-08T09:31:02;32.4;100.0
22674;DHT22;11504;43.334;21.918;2023-09-08T09:35:42;32.1;100.0
22674;DHT22;11504;43.334;21.918;2023-09-08T09:40:27;32.1;100.0
22674;DHT22;11504;43.334;21.918;2023-09-08T09:45:07;31.4;100.0
22674;DHT22;11504;43.334;21.918;2023-09-08T09:49:48;31.4;100.0
22674;DHT22;11504;43.334;21.918;2023-09-08T09:54:25;30.7;100.0
22674;DHT22;11504;43.334;21.918;2023-09-08T09:59:04;30.7;100.0
22674;DHT22;11504;43.334;21.918;2023-09-08T10:03:48;30.7;100.0
22674;DHT22;11504;43.334;21.918;2023-09-08T10:08:27;30.2;100.0
22674;DHT22;11504;43.334;21.918;2023-09-08T10:13:09;30.2;100.0
22674;DHT22;11504;43.334;21.918;2023-09-08T10:18:03;29.6;100.0
22674;DHT22;11504;43.334;21.918;2023-09-08T10:22:56;29.6;100.0
22674;DHT22;11504;43.334;21.918;2023-09-08T10:27:58;29.6;100.0
22674;DHT22;11504;43.334;21.918;2023-09-08T10:32:36;29.6;100.0
22674;DHT22;11504;43.334;21.918;2023-09-08T10:37:20;29.6;100.0
22674;DHT22;11504;43.334;21.918;2023-09-08T10:42:33;29.6;100.0
22674;DHT22;11504;43.334;21.918;2023-09-08T10:47:10;29.4;100.0
22674;DHT22;11504;43.334;21.918;2023-09-08T10:51:48;29.4;100.0
22674;DHT22;11504;43.334;21.918;2023-09-08T10:56:31;29.1;100.0
22674;DHT22;11504;43.334;21.918;2023-09-08T11:01:32;29.1;100.0
22674;DHT22;11504;43.334;21.918;2023-09-08T11:06:09;29.2;100.0
22674;DHT22;11504;43.334;21.918;2023-09-08T11:10:46;29.2;100.0
22674;DHT22;11504;43.334;21.918;2023-09-08T11:15:24;29.2;100.0
22674;DHT22;11504;43.334;21.918;2023-09-08T11:20:02;29.2;100.0
22674;DHT22;11504;43.334;21.918;2023-09-08T11:24:42;29.4;100.0
22674;DHT22;11504;43.334;21.918;2023-09-08T11:29:20;29.4;100.0
22674;DHT22;11504;43.334;21.918;2023-09-08T11:33:58;29.4;100.0
22674;DHT22;11504;43.334;21.918;2023-09-08T11:38:34;29.6;100.0
22674;DHT22;11504;43.334;21.918;2023-09-08T11:43:11;29.6;100.0
22674;DHT22;11504;43.334;21.918;2023-09-08T11:47:49;29.6;100.0
22674;DHT22;11504;43.334;21.918;2023-09-08T11:52:28;29.6;100.0
22674;DHT22;11504;43.334;21.918;2023-09-08T11:57:06;29.7;100.0
22674;DHT22;11504;43.334;21.918;2023-09-08T12:01:44;29.7;100.0
22674;DHT22;11504;43.334;21.918;2023-09-08T12:06:25;29.7;100.0
22674;DHT22;11504;43.334;21.918;2023-09-08T12:11:04;29.7;100.0
22674;DHT22;11504;43.334;21.918;2023-09-08T12:15:42;29.7;100.0
22674;DHT22;11504;43.334;21.918;2023-09-08T12:20:20;29.7;100.0
22674;DHT22;11504;43.334;21.918;2023-09-08T12:24:57;29.6;100.0
22674;DHT22;11504;43.334;21.918;2023-09-08T12:29:34;29.6;100.0
22674;DHT22;11504;43.334;21.918;2023-09-08T12:34:10;29.6;100.0
22674;DHT22;11504;43.334;21.918;2023-09-08T12:38:48;29.4;100.0
22674;DHT22;11504;43.334;21.918;2023-09-08T12:43:27;29.4;100.0
22674;DHT22;11504;43.334;21.918;2023-09-08T12:48:05;29.4;100.0
22674;DHT22;11504;43.334;21.918;2023-09-08T12:52:44;29.4;100.0
22674;DHT22;11504;43.334;21.918;2023-09-08T12:57:20;29.4;100.0
22674;DHT22;11504;43.334;21.918;2023-09-08T13:01:57;29.4;100.0
22674;DHT22;11504;43.334;21.918;2023-09-08T13:06:33;29.4;100.0
22674;DHT22;11504;43.334;21.918;2023-09-08T13:11:10;29.4;100.0
22674;DHT22;11504;43.334;21.918;2023-09-08T13:15:47;29.5;100.0
22674;DHT22;11504;43.334;21.918;2023-09-08T13:20:23;29.5;100.0
22674;DHT22;11504;43.334;21.918;2023-09-08T13:25:00;29.4;100.0
22674;DHT22;11504;43.334;21.918;2023-09-08T13:29:36;29.4;100.0
22674;DHT22;11504;43.334;21.918;2023-09-08T13:34:13;29.4;100.0
22674;DHT22;11504;43.334;21.918;2023-09-08T13:38:50;29.3;100.0
22674;DHT22;11504;43.334;21.918;2023-09-08T13:43:26;29.3;100.0
22674;DHT22;11504;43.334;21.918;2023-09-08T13:48:03;29.2;100.0
22674;DHT22;11504;43.334;21.918;2023-09-08T13:52:41;29.2;100.0
22674;DHT22;11504;43.334;21.918;2023-09-08T13:57:17;29.2;100.0
22674;DHT22;11504;43.334;21.918;2023-09-08T14:01:54;29.2;100.0
22674;DHT22;11504;43.334;21.918;2023-09-08T14:06:31;29.0;100.0
22674;DHT22;11504;43.334;21.918;2023-09-08T14:11:08;29.0;100.0
22674;DHT22;11504;43.334;21.918;2023-09-08T14:15:45;28.9;100.0
22674;DHT22;11504;43.334;21.918;2023-09-08T14:20:22;28.9;100.0
22674;DHT22;11504;43.334;21.918;2023-09-08T14:24:59;28.8;100.0
22674;DHT22;11504;43.334;21.918;2023-09-08T14:29:35;28.8;100.0
22674;DHT22;11504;43.334;21.918;2023-09-08T14:34:12;28.8;100.0
22674;DHT22;11504;43.334;21.918;2023-09-08T14:38:49;28.7;100.0
22674;DHT22;11504;43.334;21.918;2023-09-08T14:43:28;28.7;100.0
22674;DHT22;11504;43.334;21.918;2023-09-08T14:48:06;28.6;100.0
22674;DHT22;11504;43.334;21.918;2023-09-08T14:52:43;28.6;100.0
22674;DHT22;11504;43.334;21.918;2023-09-08T14:57:20;28.5;100.0
22674;DHT22;11504;43.334;21.918;2023-09-08T15:01:57;28.5;100.0
22674;DHT22;11504;43.334;21.918;2023-09-08T15:06:34;28.4;100.0
22674;DHT22;11504;43.334;21.918;2023-09-08T15:11:11;28.4;100.0
22674;DHT22;11504;43.334;21.918;2023-09-08T15:15:47;28.4;100.0
22674;DHT22;11504;43.334;21.918;2023-09-08T15:20:23;28.4;100.0
22674;DHT22;11504;43.334;21.918;2023-09-08T15:25:00;28.3;100.0
22674;DHT22;11504;43.334;21.918;2023-09-08T15:29:36;28.3;100.0
22674;DHT22;11504;43.334;21.918;2023-09-08T15:34:13;28.3;100.0
22674;DHT22;11504;43.334;21.918;2023-09-08T15:38:49;28.2;100.0
22674;DHT22;11504;43.334;21.918;2023-09-08T15:43:26;28.2;100.0
22674;DHT22;11504;43.334;21.918;2023-09-08T15:48:03;28.2;100.0
22674;DHT22;11504;43.334;21.918;2023-09-08T15:52:41;28.2;100.0
22674;DHT22;11504;43.334;21.918;2023-09-08T15:57:17;28.1;100.0
22674;DHT22;11504;43.334;21.918;2023-09-08T16:01:54;28.1;100.0
22674;DHT22;11504;43.334;21.918;2023-09-08T16:06:30;28.0;100.0
22674;DHT22;11504;43.334;21.918;2023-09-08T16:11:07;28.0;100.0
22674;DHT22;11504;43.334;21.918;2023-09-08T16:15:43;27.8;100.0
22674;DHT22;11504;43.334;21.918;2023-09-08T16:20:19;27.8;100.0
22674;DHT22;11504;43.334;21.918;2023-09-08T16:24:56;27.6;100.0
22674;DHT22;11504;43.334;21.918;2023-09-08T16:29:32;27.6;100.0
22674;DHT22;11504;43.334;21.918;2023-09-08T16:34:08;27.6;100.0
22674;DHT22;11504;43.334;21.918;2023-09-08T16:38:45;27.4;100.0
22674;DHT22;11504;43.334;21.918;2023-09-08T16:43:21;27.4;100.0
22674;DHT22;11504;43.334;21.918;2023-09-08T16:47:57;27.2;100.0
22674;DHT22;11504;43.334;21.918;2023-09-08T16:52:33;27.2;100.0
22674;DHT22;11504;43.334;21.918;2023-09-08T16:57:10;26.9;100.0
22674;DHT22;11504;43.334;21.918;2023-09-08T17:01:47;26.9;100.0
22674;DHT22;11504;43.334;21.918;2023-09-08T17:06:25;26.6;100.0
22674;DHT22;11504;43.334;21.918;2023-09-08T17:11:04;26.6;100.0
22674;DHT22;11504;43.334;21.918;2023-09-08T17:15:42;26.2;100.0
22674;DHT22;11504;43.334;21.918;2023-09-08T17:20:19;26.2;100.0
22674;DHT22;11504;43.334;21.918;2023-09-08T17:24:56;26.0;100.0
22674;DHT22;11504;43.334;21.918;2023-09-08T17:29:33;26.0;100.0
22674;DHT22;11504;43.334;21.918;2023-09-08T17:34:18;26.0;100.0
22674;DHT22;11504;43.334;21.918;2023-09-08T17:38:57;25.7;100.0
22674;DHT22;11504;43.334;21.918;2023-09-08T17:43:33;25.7;100.0
22674;DHT22;11504;43.334;21.918;2023-09-08T17:48:11;25.5;100.0
22674;DHT22;11504;43.334;21.918;2023-09-08T17:52:47;25.5;100.0
22674;DHT22;11504;43.334;21.918;2023-09-08T17:57:24;25.4;100.0
22674;DHT22;11504;43.334;21.918;2023-09-08T18:02:00;25.4;100.0
22674;DHT22;11504;43.334;21.918;2023-09-08T18:06:37;25.2;100.0
22674;DHT22;11504;43.334;21.918;2023-09-08T18:11:13;25.2;100.0
22674;DHT22;11504;43.334;21.918;2023-09-08T18:15:57;25.0;100.0
22674;DHT22;11504;43.334;21.918;2023-09-08T18:20:34;25.0;100.0
22674;DHT22;11504;43.334;21.918;2023-09-08T18:25:10;24.9;100.0
22674;DHT22;11504;43.334;21.918;2023-09-08T18:29:47;24.9;100.0
22674;DHT22;11504;43.334;21.918;2023-09-08T18:34:24;24.9;100.0
22674;DHT22;11504;43.334;21.918;2023-09-08T18:39:01;24.8;100.0
22674;DHT22;11504;43.334;21.918;2023-09-08T18:43:37;24.8;100.0
22674;DHT22;11504;43.334;21.918;2023-09-08T18:48:14;24.6;100.0
22674;DHT22;11504;43.334;21.918;2023-09-08T18:52:50;24.6;100.0
22674;DHT22;11504;43.334;21.918;2023-09-08T18:57:27;24.5;100.0
22674;DHT22;11504;43.334;21.918;2023-09-08T19:02:04;24.5;100.0
22674;DHT22;11504;43.334;21.918;2023-09-08T19:06:41;24.4;100.0
22674;DHT22;11504;43.334;21.918;2023-09-08T19:11:17;24.4;100.0
22674;DHT22;11504;43.334;21.918;2023-09-08T19:15:54;24.2;100.0
22674;DHT22;11504;43.334;21.918;2023-09-08T19:20:30;24.2;100.0
22674;DHT22;11504;43.334;21.918;2023-09-08T19:25:08;24.0;100.0
22674;DHT22;11504;43.334;21.918;2023-09-08T19:29:48;24.0;100.0
22674;DHT22;11504;43.334;21.918;2023-09-08T19:34:25;24.0;100.0
22674;DHT22;11504;43.334;21.918;2023-09-08T19:39:02;23.9;100.0
22674;DHT22;11504;43.334;21.918;2023-09-08T19:43:39;23.9;100.0
22674;DHT22;11504;43.334;21.918;2023-09-08T19:48:15;23.8;100.0
22674;DHT22;11504;43.334;21.918;2023-09-08T19:52:52;23.8;100.0
22674;DHT22;11504;43.334;21.918;2023-09-08T19:57:28;23.7;100.0
22674;DHT22;11504;43.334;21.918;2023-09-08T20:02:05;23.7;100.0
22674;DHT22;11504;43.334;21.918;2023-09-08T20:06:44;23.7;100.0
22674;DHT22;11504;43.334;21.918;2023-09-08T20:11:21;23.7;100.0
22674;DHT22;11504;43.334;21.918;2023-09-08T20:16:01;23.7;100.0
22674;DHT22;11504;43.334;21.918;2023-09-08T20:20:43;23.7;100.0
22674;DHT22;11504;43.334;21.918;2023-09-08T20:25:19;23.6;100.0
22674;DHT22;11504;43.334;21.918;2023-09-08T20:29:56;23.6;100.0
22674;DHT22;11504;43.334;21.918;2023-09-08T20:34:32;23.6;100.0
22674;DHT22;11504;43.334;21.918;2023-09-08T20:39:09;23.5;100.0
22674;DHT22;11504;43.334;21.918;2023-09-08T20:43:45;23.5;100.0
22674;DHT22;11504;43.334;21.918;2023-09-08T20:48:22;23.4;100.0
22674;DHT22;11504;43.334;21.918;2023-09-08T20:52:58;23.4;100.0
22674;DHT22;11504;43.334;21.918;2023-09-08T20:57:35;23.2;100.0
22674;DHT22;11504;43.334;21.918;2023-09-08T21:02:12;23.2;100.0
22674;DHT22;11504;43.334;21.918;2023-09-08T21:06:49;23.2;100.0
22674;DHT22;11504;43.334;21.918;2023-09-08T21:11:25;23.2;100.0
22674;DHT22;11504;43.334;21.918;2023-09-08T21:16:02;23.1;100.0
22674;DHT22;11504;43.334;21.918;2023-09-08T21:20:38;23.1;100.0
22674;DHT22;11504;43.334;21.918;2023-09-08T21:25:15;23.0;100.0
22674;DHT22;11504;43.334;21.918;2023-09-08T21:29:53;23.0;100.0
22674;DHT22;11504;43.334;21.918;2023-09-08T21:34:30;23.0;100.0
22674;DHT22;11504;43.334;21.918;2023-09-08T21:39:06;22.9;100.0
22674;DHT22;11504;43.334;21.918;2023-09-08T21:43:43;22.9;100.0
22674;DHT22;11504;43.334;21.918;2023-09-08T21:48:19;22.8;100.0
22674;DHT22;11504;43.334;21.918;2023-09-08T21:52:55;22.8;100.0
22674;DHT22;11504;43.334;21.918;2023-09-08T21:57:32;22.7;100.0
22674;DHT22;11504;43.334;21.918;2023-09-08T22:02:08;22.7;100.0
22674;DHT22;11504;43.334;21.918;2023-09-08T22:06:44;22.6;100.0
22674;DHT22;11504;43.334;21.918;2023-09-08T22:11:20;22.6;100.0
22674;DHT22;11504;43.334;21.918;2023-09-08T22:15:57;22.6;100.0
22674;DHT22;11504;43.334;21.918;2023-09-08T22:20:38;22.6;100.0
22674;DHT22;11504;43.334;21.918;2023-09-08T22:25:14;22.4;100.0
22674;DHT22;11504;43.334;21.918;2023-09-08T22:29:51;22.4;100.0
22674;DHT22;11504;43.334;21.918;2023-09-08T22:34:28;22.4;100.0
22674;DHT22;11504;43.334;21.918;2023-09-08T22:39:05;22.1;100.0
22674;DHT22;11504;43.334;21.918;2023-09-08T22:43:41;22.1;100.0
22674;DHT22;11504;43.334;21.918;2023-09-08T22:48:18;22.0;100.0
22674;DHT22;11504;43.334;21.918;2023-09-08T22:52:58;22.0;100.0
22674;DHT22;11504;43.334;21.918;2023-09-08T22:57:35;21.8;100.0
22674;DHT22;11504;43.334;21.918;2023-09-08T23:02:13;21.8;100.0
22674;DHT22;11504;43.334;21.918;2023-09-08T23:06:49;21.6;100.0
22674;DHT22;11504;43.334;21.918;2023-09-08T23:11:26;21.6;100.0
22674;DHT22;11504;43.334;21.918;2023-09-08T23:16:04;21.5;100.0
22674;DHT22;11504;43.334;21.918;2023-09-08T23:20:40;21.5;100.0
22674;DHT22;11504;43.334;21.918;2023-09-08T23:25:17;21.4;100.0
22674;DHT22;11504;43.334;21.918;2023-09-08T23:29:53;21.4;100.0
22674;DHT22;11504;43.334;21.918;2023-09-08T23:34:30;21.4;100.0
22674;DHT22;11504;43.334;21.918;2023-09-08T23:39:07;21.3;100.0
22674;DHT22;11504;43.334;21.918;2023-09-08T23:43:44;21.3;100.0
22674;DHT22;11504;43.334;21.918;2023-09-08T23:48:20;21.2;100.0
22674;DHT22;11504;43.334;21.918;2023-09-08T23:52:57;21.2;100.0
22674;DHT22;11504;43.334;21.918;2023-09-08T23:57:33;21.2;100.0
